createdAt,value
2022-12-18T00:01:30.959Z,101989.41
2022-12-18T00:03:58.173Z,101987.03
2022-12-18T00:06:27.693Z,101991.34
2022-12-18T00:08:55.295Z,101986.63
2022-12-18T00:11:23.710Z,101989.13
2022-12-18T00:13:51.009Z,101984.69
2022-12-18T00:16:21.641Z,101986.91
2022-12-18T00:18:52.390Z,101975.25
2022-12-18T00:21:20.606Z,101981.06
2022-12-18T00:23:48.436Z,101982.88
2022-12-18T00:26:36.328Z,101984.69
2022-12-18T00:29:16.302Z,101990.81
2022-12-18T00:31:43.541Z,101998.44
2022-12-18T00:34:12.607Z,102009.66
2022-12-18T00:36:39.834Z,101998.13
2022-12-18T00:39:06.638Z,101991.34
2022-12-18T00:41:33.051Z,101985.09
2022-12-18T00:43:59.365Z,101991.09
2022-12-18T00:46:25.680Z,101986.19
2022-12-18T00:48:52.020Z,101985.66
2022-12-18T00:51:18.378Z,101988.28
2022-12-18T00:53:44.687Z,101986.91
2022-12-18T00:56:11.033Z,101983.16
2022-12-18T00:58:37.361Z,101982.31
2022-12-18T01:01:05.864Z,101974.13
2022-12-18T01:03:32.221Z,101973.44
2022-12-18T01:05:58.590Z,101984.81
2022-12-18T01:08:25.153Z,101990.91
2022-12-18T01:10:51.769Z,101990.91
2022-12-18T01:13:18.101Z,101990.25
2022-12-18T01:15:51.395Z,101983.28
2022-12-18T01:18:17.793Z,101985.53
2022-12-18T01:20:44.245Z,101980.50
2022-12-18T01:23:10.610Z,101986.19
2022-12-18T01:25:37.379Z,101978.16
2022-12-18T01:28:04.012Z,101972.19
2022-12-18T01:30:30.357Z,101974.78
2022-12-18T01:32:56.668Z,101976.34
2022-12-18T01:35:23.009Z,101974.66
2022-12-18T01:37:49.396Z,101985.78
2022-12-18T01:40:15.775Z,101982.88
2022-12-18T01:42:42.108Z,101988.56
2022-12-18T01:45:14.396Z,101990.78
2022-12-18T01:47:46.681Z,101997.03
2022-12-18T01:50:21.990Z,101994.56
2022-12-18T01:53:19.468Z,101995.50
2022-12-18T01:55:59.218Z,101989.94
2022-12-18T01:58:34.746Z,101993.84
2022-12-18T02:01:01.118Z,101988.00
2022-12-18T02:03:27.510Z,101986.06
2022-12-18T02:06:16.041Z,101982.19
2022-12-18T02:09:08.672Z,101986.78
2022-12-18T02:11:45.864Z,101989.53
2022-12-18T02:14:29.049Z,101990.53
2022-12-18T02:17:06.171Z,101986.22
2022-12-18T02:19:44.165Z,101984.25
2022-12-18T02:22:29.275Z,101982.44
2022-12-18T02:25:12.157Z,101984.81
2022-12-18T02:27:40.097Z,101989.53
2022-12-18T02:30:08.153Z,101989.53
2022-12-18T02:32:40.677Z,101985.94
2022-12-18T02:35:11.590Z,101992.44
2022-12-18T02:37:41.551Z,101974.00
2022-12-18T02:40:09.584Z,101970.22
2022-12-18T02:42:35.923Z,101970.81
2022-12-18T02:45:02.403Z,101969.41
2022-12-18T02:47:33.212Z,101969.16
2022-12-18T02:50:33.080Z,101977.47
2022-12-18T02:53:15.781Z,101980.97
2022-12-18T02:56:06.120Z,101977.91
2022-12-18T02:58:59.687Z,101977.06
2022-12-18T03:01:36.603Z,101976.63
2022-12-18T03:04:23.341Z,101983.88
2022-12-18T03:06:52.204Z,101983.16
2022-12-18T03:09:39.216Z,101990.38
2022-12-18T03:12:17.698Z,101994.28
2022-12-18T03:14:46.211Z,101983.56
2022-12-18T03:17:17.435Z,101995.22
2022-12-18T03:19:45.544Z,101997.72
2022-12-18T03:22:12.268Z,101989.81
2022-12-18T03:24:38.952Z,101977.19
2022-12-18T03:27:10.395Z,101976.63
2022-12-18T03:29:53.580Z,101982.19
2022-12-18T03:32:26.850Z,101983.41
2022-12-18T03:34:58.444Z,101980.41
2022-12-18T03:37:25.058Z,101978.84
2022-12-18T03:39:51.488Z,101973.56
2022-12-18T03:42:33.564Z,101961.78
2022-12-18T03:45:11.075Z,101968.56
2022-12-18T03:47:52.361Z,101977.34
2022-12-18T03:50:26.833Z,101989.84
2022-12-18T03:53:01.266Z,101987.47
2022-12-18T03:55:32.262Z,101982.75
2022-12-18T03:58:00.646Z,101982.88
2022-12-18T04:00:27.625Z,101986.91
2022-12-18T04:02:56.314Z,101982.75
2022-12-18T04:05:25.145Z,101992.59
2022-12-18T04:07:53.254Z,101982.31
2022-12-18T04:10:19.740Z,101983.03
2022-12-18T04:12:46.095Z,101980.38
2022-12-18T04:15:14.255Z,101975.97
2022-12-18T04:17:48.705Z,101977.34
2022-12-18T04:20:15.314Z,101982.19
2022-12-18T04:22:41.637Z,101980.66
2022-12-18T04:25:08.423Z,101974.81
2022-12-18T04:27:34.980Z,101977.19
2022-12-18T04:30:01.440Z,101976.50
2022-12-18T04:32:27.773Z,101991.75
2022-12-18T04:34:54.078Z,101990.09
2022-12-18T04:37:20.505Z,101987.19
2022-12-18T04:39:46.883Z,101992.75
2022-12-18T04:42:13.235Z,101994.41
2022-12-18T04:44:39.536Z,102003.28
2022-12-18T04:47:05.868Z,101994.66
2022-12-18T04:49:32.182Z,101983.28
2022-12-18T04:51:58.514Z,101990.53
2022-12-18T04:54:24.841Z,101989.13
2022-12-18T04:56:51.172Z,101993.03
2022-12-18T04:59:17.539Z,101993.72
2022-12-18T05:01:44.038Z,101992.03
2022-12-18T05:04:11.024Z,101987.31
2022-12-18T05:06:37.486Z,101987.03
2022-12-18T05:09:04.112Z,101990.78
2022-12-18T05:11:30.488Z,101987.19
2022-12-18T05:13:56.818Z,101984.25
2022-12-18T05:16:23.231Z,101987.59
2022-12-18T05:18:49.580Z,101985.53
2022-12-18T05:21:15.952Z,101980.25
2022-12-18T05:23:42.764Z,101980.25
2022-12-18T05:26:09.773Z,101978.44
2022-12-18T05:28:37.009Z,101975.66
2022-12-18T05:31:06.059Z,101968.72
2022-12-18T05:33:35.135Z,101968.72
2022-12-18T05:36:04.963Z,101969.16
2022-12-18T05:38:33.230Z,101986.63
2022-12-18T05:40:59.817Z,101984.97
2022-12-18T05:43:27.377Z,101987.47
2022-12-18T05:45:54.786Z,101978.28
2022-12-18T05:48:22.147Z,101976.63
2022-12-18T05:50:50.617Z,101974.69
2022-12-18T05:53:19.590Z,101969.41
2022-12-18T05:55:46.608Z,101969.00
2022-12-18T05:58:14.080Z,101972.91
2022-12-18T06:00:42.881Z,101976.75
2022-12-18T06:03:11.619Z,101981.63
2022-12-18T06:05:39.616Z,101977.34
2022-12-18T06:08:06.097Z,101979.56
2022-12-18T06:10:32.555Z,101988.31
2022-12-18T06:12:59.138Z,101985.50
2022-12-18T06:15:25.501Z,101990.25
2022-12-18T06:17:52.117Z,101996.34
2022-12-18T06:20:18.657Z,101991.34
2022-12-18T06:22:45.245Z,101999.41
2022-12-18T06:25:11.873Z,101999.13
2022-12-18T06:27:38.267Z,101993.03
2022-12-18T06:30:05.606Z,102002.16
2022-12-18T06:32:31.953Z,101997.16
2022-12-18T06:34:58.565Z,102004.13
2022-12-18T06:37:24.911Z,102008.97
2022-12-18T06:39:51.212Z,102015.50
2022-12-18T06:42:17.525Z,102020.22
2022-12-18T06:44:43.852Z,102017.03
2022-12-18T06:47:10.252Z,102022.16
2022-12-18T06:49:36.556Z,102027.56
2022-12-18T06:52:03.027Z,102032.44
2022-12-18T06:54:29.361Z,102031.06
2022-12-18T06:56:55.709Z,102030.19
2022-12-18T06:59:22.053Z,102028.81
2022-12-18T07:01:48.557Z,102025.63
2022-12-18T07:04:14.999Z,102024.78
2022-12-18T07:06:41.333Z,102028.41
2022-12-18T07:09:07.670Z,102030.66
2022-12-18T07:11:34.365Z,102040.63
2022-12-18T07:14:00.780Z,102041.75
2022-12-18T07:16:27.372Z,102036.63
2022-12-18T07:18:55.610Z,102037.28
2022-12-18T07:21:22.898Z,102026.88
2022-12-18T07:23:49.606Z,102039.81
2022-12-18T07:26:18.871Z,102028.53
2022-12-18T07:28:45.336Z,102030.06
2022-12-18T07:31:18.964Z,102014.94
2022-12-18T07:33:46.488Z,102012.97
2022-12-18T07:36:13.518Z,102010.03
2022-12-18T07:38:40.482Z,102009.34
2022-12-18T07:41:10.042Z,102006.00
2022-12-18T07:43:37.820Z,102013.78
2022-12-18T07:46:04.990Z,102018.63
2022-12-18T07:48:31.701Z,102019.44
2022-12-18T07:51:06.760Z,102025.41
2022-12-18T07:53:34.276Z,102012.59
2022-12-18T07:56:29.420Z,102014.56
2022-12-18T07:58:49.105Z,102017.31
2022-12-18T08:01:15.626Z,102013.41
2022-12-18T08:03:42.328Z,102032.03
2022-12-18T08:06:10.768Z,102028.16
2022-12-18T08:08:37.437Z,102028.69
2022-12-18T08:11:04.039Z,102031.84
2022-12-18T08:13:30.487Z,102029.09
2022-12-18T08:15:57.750Z,102021.34
2022-12-18T08:18:24.166Z,102015.78
2022-12-18T08:20:50.610Z,102008.25
2022-12-18T08:23:16.967Z,102007.13
2022-12-18T08:25:43.308Z,101997.34
2022-12-18T08:28:09.660Z,101994.94
2022-12-18T08:30:36.550Z,101992.22
2022-12-18T08:33:04.853Z,101991.41
2022-12-18T08:35:36.351Z,101985.50
2022-12-18T08:38:04.565Z,101976.75
2022-12-18T08:40:30.925Z,101980.09
2022-12-18T08:42:57.258Z,101987.94
2022-12-18T08:45:23.582Z,101985.84
2022-12-18T08:47:49.890Z,101988.94
2022-12-18T08:50:16.301Z,101987.84
2022-12-18T08:52:42.616Z,101987.81
2022-12-18T08:55:09.844Z,101984.94
2022-12-18T08:57:36.162Z,101984.75
2022-12-18T09:00:02.772Z,101979.22
2022-12-18T09:02:29.228Z,101972.34
2022-12-18T09:04:57.734Z,101983.59
2022-12-18T09:07:24.273Z,101972.66
2022-12-18T09:09:50.595Z,101983.91
2022-12-18T09:12:16.945Z,101975.00
2022-12-18T09:14:43.373Z,101982.59
2022-12-18T09:17:09.740Z,101984.19
2022-12-18T09:19:36.149Z,101985.03
2022-12-18T09:22:02.466Z,101985.91
2022-12-18T09:24:28.814Z,101978.50
2022-12-18T09:26:57.787Z,101987.13
2022-12-18T09:29:24.533Z,101979.53
2022-12-18T09:31:50.886Z,101969.13
2022-12-18T09:34:17.473Z,101976.72
2022-12-18T09:36:43.957Z,101977.75
2022-12-18T09:39:10.315Z,101977.53
2022-12-18T09:41:47.503Z,101980.75
2022-12-18T09:44:28.013Z,101980.63
2022-12-18T09:47:06.947Z,101979.16
2022-12-18T09:49:37.309Z,101981.97
2022-12-18T09:52:20.207Z,101989.09
2022-12-18T09:54:59.679Z,101988.78
2022-12-18T09:57:26.158Z,101985.78
2022-12-18T10:00:24.440Z,101962.91
2022-12-18T10:03:00.864Z,101971.34
2022-12-18T10:05:51.726Z,101968.22
2022-12-18T10:08:22.840Z,101982.81
2022-12-18T10:10:53.581Z,101975.84
2022-12-18T10:13:35.089Z,101977.00
2022-12-18T10:16:01.395Z,101983.00
2022-12-18T10:18:34.424Z,101985.97
2022-12-18T10:21:10.902Z,101981.47
2022-12-18T10:24:03.438Z,101968.03
2022-12-18T10:26:32.253Z,101955.09
2022-12-18T10:29:05.358Z,101935.34
2022-12-18T10:31:32.173Z,101920.19
2022-12-18T10:33:58.587Z,101919.97
2022-12-18T10:36:25.925Z,101911.91
2022-12-18T10:38:52.242Z,101903.81
2022-12-18T10:41:18.516Z,101902.66
2022-12-18T10:43:45.064Z,101900.75
2022-12-18T10:46:11.376Z,101903.19
2022-12-18T10:48:57.804Z,101898.63
2022-12-18T10:51:32.679Z,101904.22
2022-12-18T10:54:06.242Z,101901.00
2022-12-18T10:56:35.620Z,101895.28
2022-12-18T10:59:03.266Z,101894.66
2022-12-18T11:01:56.241Z,101889.09
2022-12-18T11:04:26.519Z,101891.66
2022-12-18T11:07:01.607Z,101882.78
2022-12-18T11:09:31.147Z,101877.81
2022-12-18T11:12:00.462Z,101884.00
2022-12-18T11:14:46.555Z,101867.44
2022-12-18T11:17:29.853Z,101862.00
2022-12-18T11:19:58.981Z,101853.00
2022-12-18T11:22:34.694Z,101846.38
2022-12-18T11:28:26.409Z,101837.25
2022-12-18T11:31:19.003Z,101845.06
2022-12-18T11:34:19.746Z,101826.75
2022-12-18T11:36:43.833Z,101825.66
2022-12-18T11:39:19.067Z,101817.00
2022-12-18T11:41:57.121Z,101820.03
2022-12-18T11:44:32.654Z,101810.00
2022-12-18T11:47:10.427Z,101815.22
2022-12-18T11:49:37.139Z,101816.59
2022-12-18T11:52:14.184Z,101810.47
2022-12-18T11:54:40.504Z,101807.81
2022-12-18T11:57:34.062Z,101806.63
2022-12-18T12:00:17.658Z,101808.22
2022-12-18T12:03:00.156Z,101799.16
2022-12-18T12:05:55.779Z,101796.22
2022-12-18T12:08:41.634Z,101783.00
2022-12-18T12:11:16.724Z,101784.91
2022-12-18T12:13:58.224Z,101781.53
2022-12-18T12:16:42.384Z,101772.47
2022-12-18T12:19:20.531Z,101770.16
2022-12-18T12:22:08.429Z,101769.50
2022-12-18T12:25:12.508Z,101767.22
2022-12-18T12:27:55.736Z,101762.84
2022-12-18T12:30:33.311Z,101754.84
2022-12-18T12:32:59.593Z,101756.22
2022-12-18T12:35:25.870Z,101755.69
2022-12-18T12:38:22.823Z,101752.75
2022-12-18T12:41:02.487Z,101763.44
2022-12-18T12:43:51.117Z,101768.84
2022-12-18T12:46:21.049Z,101759.00
2022-12-18T12:48:57.851Z,101765.81
2022-12-18T12:51:30.885Z,101759.28
2022-12-18T12:53:58.864Z,101755.25
2022-12-18T12:56:33.760Z,101754.88
2022-12-18T12:59:00.070Z,101768.03
2022-12-18T13:01:56.102Z,101772.88
2022-12-18T13:04:26.111Z,101757.16
2022-12-18T13:07:02.264Z,101749.91
2022-12-18T13:09:36.814Z,101735.78
2022-12-18T13:12:11.785Z,101736.16
2022-12-18T13:14:40.841Z,101736.53
2022-12-18T13:17:23.893Z,101724.31
2022-12-18T13:19:52.371Z,101726.25
2022-12-18T13:22:32.364Z,101727.50
2022-12-18T13:24:58.802Z,101714.28
2022-12-18T13:27:43.726Z,101713.09
2022-12-18T13:30:34.720Z,101703.03
2022-12-18T13:33:16.302Z,101695.91
2022-12-18T13:35:48.470Z,101680.78
2022-12-18T13:38:27.046Z,101674.34
2022-12-18T13:41:00.538Z,101676.66
2022-12-18T13:43:46.935Z,101676.66
2022-12-18T13:46:42.976Z,101668.94
2022-12-18T13:49:15.146Z,101658.38
2022-12-18T13:51:44.808Z,101655.34
2022-12-18T13:54:35.888Z,101669.13
2022-12-18T13:57:04.069Z,101665.09
2022-12-18T13:59:40.782Z,101666.47
2022-12-18T14:02:15.683Z,101663.91
2022-12-18T14:04:42.681Z,101660.97
2022-12-18T14:07:14.909Z,101665.66
2022-12-18T14:09:45.162Z,101655.00
2022-12-18T14:12:21.677Z,101652.81
2022-12-18T14:14:55.021Z,101662.53
2022-12-18T14:17:21.867Z,101661.53
2022-12-18T14:19:52.220Z,101658.78
2022-12-18T14:22:27.583Z,101661.63
2022-12-18T14:25:27.601Z,101661.25
2022-12-18T14:28:08.657Z,101668.50
2022-12-18T14:30:43.057Z,101668.50
2022-12-18T14:33:09.310Z,101660.41
2022-12-18T14:35:44.320Z,101655.28
2022-12-18T14:38:16.607Z,101653.81
2022-12-18T14:40:44.170Z,101656.56
2022-12-18T14:43:13.670Z,101644.56
2022-12-18T14:45:44.649Z,101637.09
2022-12-18T14:48:23.354Z,101643.25
2022-12-18T14:51:06.060Z,101640.44
2022-12-18T14:53:50.501Z,101641.63
2022-12-18T14:56:26.321Z,101641.16
2022-12-18T14:59:00.859Z,101633.44
2022-12-18T15:01:47.593Z,101632.25
2022-12-18T15:04:25.875Z,101620.25
2022-12-18T15:07:12.757Z,101631.06
2022-12-18T15:09:41.665Z,101628.84
2022-12-18T15:12:26.828Z,101625.28
2022-12-18T15:14:53.091Z,101626.47
2022-12-18T15:17:23.843Z,101631.53
2022-12-18T15:20:01.977Z,101624.25
2022-12-18T15:22:35.403Z,101618.56
2022-12-18T15:25:02.946Z,101620.69
2022-12-18T15:27:37.522Z,101611.31
2022-12-18T15:30:09.888Z,101598.66
2022-12-18T15:32:40.910Z,101601.03
2022-12-18T15:35:21.669Z,101595.72
2022-12-18T15:37:48.779Z,101592.69
2022-12-18T15:40:23.815Z,101584.91
2022-12-18T15:42:55.095Z,101576.84
2022-12-18T15:45:21.525Z,101574.91
2022-12-18T15:47:50.391Z,101575.72
2022-12-18T15:50:16.712Z,101572.41
2022-12-18T15:52:45.892Z,101572.03
2022-12-18T15:55:18.325Z,101567.16
2022-12-18T15:57:44.642Z,101553.59
2022-12-18T16:00:13.250Z,101550.84
2022-12-18T16:02:39.734Z,101558.28
2022-12-18T16:05:15.184Z,101553.50
2022-12-18T16:07:41.684Z,101557.38
2022-12-18T16:10:08.348Z,101561.00
2022-12-18T16:12:36.653Z,101561.28
2022-12-18T16:15:04.027Z,101556.44
2022-12-18T16:17:30.516Z,101540.53
2022-12-18T16:19:56.861Z,101534.41
2022-12-18T16:22:29.269Z,101533.03
2022-12-18T16:24:57.240Z,101516.78
2022-12-18T16:27:24.798Z,101527.31
2022-12-18T16:29:51.529Z,101527.06
2022-12-18T16:32:20.718Z,101520.97
2022-12-18T16:34:47.759Z,101520.81
2022-12-18T16:37:15.724Z,101515.00
2022-12-18T16:39:43.197Z,101521.34
2022-12-18T16:42:13.938Z,101510.31
2022-12-18T16:44:40.355Z,101522.38
2022-12-18T16:47:06.758Z,101516.75
2022-12-18T16:49:35.602Z,101503.38
2022-12-18T16:52:02.458Z,101513.38
2022-12-18T16:54:28.794Z,101494.91
2022-12-18T16:56:55.094Z,101499.69
2022-12-18T16:59:21.493Z,101494.34
2022-12-18T17:01:48.454Z,101487.44
2022-12-18T17:04:15.317Z,101471.59
2022-12-18T17:06:45.177Z,101480.03
2022-12-18T17:09:14.153Z,101487.06
2022-12-18T17:11:40.863Z,101483.84
2022-12-18T17:14:13.918Z,101482.78
2022-12-18T17:16:40.328Z,101473.75
2022-12-18T17:19:08.791Z,101475.66
2022-12-18T17:21:38.519Z,101458.34
2022-12-18T17:24:06.855Z,101472.91
2022-12-18T17:26:33.153Z,101461.81
2022-12-18T17:29:00.076Z,101448.34
2022-12-18T17:31:29.552Z,101447.81
2022-12-18T17:33:57.141Z,101439.06
2022-12-18T17:36:24.168Z,101435.63
2022-12-18T17:38:55.695Z,101431.28
2022-12-18T17:41:22.444Z,101434.00
2022-12-18T17:44:06.631Z,101434.41
2022-12-18T17:46:34.209Z,101427.75
2022-12-18T17:49:02.319Z,101427.25
2022-12-18T17:51:30.567Z,101425.78
2022-12-18T17:53:56.885Z,101423.13
2022-12-18T17:56:24.793Z,101425.88
2022-12-18T17:58:51.656Z,101418.66
2022-12-18T18:01:21.496Z,101408.72
2022-12-18T18:03:49.222Z,101408.28
2022-12-18T18:06:19.394Z,101410.88
2022-12-18T18:08:45.761Z,101410.59
2022-12-18T18:11:15.090Z,101414.19
2022-12-18T18:13:46.592Z,101403.91
2022-12-18T18:16:13.694Z,101393.25
2022-12-18T18:18:40.020Z,101397.19
2022-12-18T18:21:08.333Z,101386.13
2022-12-18T18:23:35.648Z,101382.22
2022-12-18T18:26:04.364Z,101388.97
2022-12-18T18:28:30.872Z,101374.06
2022-12-18T18:30:57.333Z,101386.31
2022-12-18T18:33:24.182Z,101390.44
2022-12-18T18:35:54.572Z,101404.72
2022-12-18T18:38:21.293Z,101406.78
2022-12-18T18:40:47.628Z,101399.25
2022-12-18T18:43:13.966Z,101403.09
2022-12-18T18:45:40.335Z,101392.03
2022-12-18T18:48:08.487Z,101399.78
2022-12-18T18:50:34.799Z,101380.34
2022-12-18T18:53:01.093Z,101402.25
2022-12-18T18:55:27.449Z,101394.03
2022-12-18T18:57:53.793Z,101389.09
2022-12-18T19:00:20.324Z,101378.38
2022-12-18T19:02:47.719Z,101383.72
2022-12-18T19:05:14.127Z,101405.56
2022-12-18T19:07:40.454Z,101413.22
2022-12-18T19:10:07.546Z,101400.47
2022-12-18T19:12:34.632Z,101383.09
2022-12-18T19:15:03.581Z,101421.34
2022-12-18T19:17:31.602Z,101397.94
2022-12-18T19:19:58.265Z,101418.06
2022-12-18T19:22:24.714Z,101399.03
2022-12-18T19:24:51.081Z,101407.16
2022-12-18T19:27:17.386Z,101402.41
2022-12-18T19:29:43.782Z,101423.03
2022-12-18T19:32:10.199Z,101415.69
2022-12-18T19:34:36.653Z,101404.00
2022-12-18T19:37:03.539Z,101412.13
2022-12-18T19:39:29.988Z,101402.59
2022-12-18T19:41:56.496Z,101410.13
2022-12-18T19:44:22.838Z,101411.38
2022-12-18T19:46:52.013Z,101416.50
2022-12-18T19:49:18.495Z,101408.53
2022-12-18T19:51:45.547Z,101421.63
2022-12-18T19:54:17.249Z,101426.19
2022-12-18T19:56:44.146Z,101426.63
2022-12-18T19:59:10.693Z,101419.22
2022-12-18T20:01:37.232Z,101410.53
2022-12-18T20:04:04.121Z,101393.94
2022-12-18T20:06:47.578Z,101398.44
2022-12-18T20:09:14.204Z,101411.69
2022-12-18T20:11:50.628Z,101403.03
2022-12-18T20:14:19.663Z,101401.06
2022-12-18T20:16:50.761Z,101404.66
2022-12-18T20:19:18.047Z,101404.56
2022-12-18T20:21:44.501Z,101401.31
2022-12-18T20:24:10.917Z,101399.69
2022-12-18T20:26:37.491Z,101416.41
2022-12-18T20:29:04.571Z,101408.28
2022-12-18T20:31:31.042Z,101408.44
2022-12-18T20:34:00.213Z,101414.31
2022-12-18T20:36:28.330Z,101411.97
2022-12-18T20:38:58.062Z,101408.78
2022-12-18T20:41:25.761Z,101411.81
2022-12-18T20:43:53.680Z,101414.53
2022-12-18T20:46:24.022Z,101410.31
2022-12-18T20:49:09.343Z,101407.44
2022-12-18T20:51:39.983Z,101401.63
2022-12-18T20:54:11.518Z,101407.19
2022-12-18T20:56:41.728Z,101403.19
2022-12-18T20:59:17.847Z,101399.84
2022-12-18T21:01:45.349Z,101412.00
2022-12-18T21:04:15.196Z,101411.19
2022-12-18T21:06:49.443Z,101412.47
2022-12-18T21:09:18.666Z,101410.41
2022-12-18T21:11:45.020Z,101411.69
2022-12-18T21:14:17.056Z,101403.59
2022-12-18T21:16:44.121Z,101401.50
2022-12-18T21:19:15.449Z,101401.19
2022-12-18T21:21:42.458Z,101401.34
2022-12-18T21:24:10.126Z,101388.44
2022-12-18T21:26:41.954Z,101385.84
2022-12-18T21:29:17.457Z,101392.13
2022-12-18T21:31:44.540Z,101383.38
2022-12-18T21:34:19.258Z,101374.81
2022-12-18T21:36:46.507Z,101379.38
2022-12-18T21:39:13.649Z,101384.31
2022-12-18T21:41:42.291Z,101384.06
2022-12-18T21:44:12.628Z,101386.72
2022-12-18T21:46:41.880Z,101385.94
2022-12-18T21:49:09.605Z,101379.63
2022-12-18T21:51:36.923Z,101373.25
2022-12-18T21:54:04.040Z,101373.31
2022-12-18T21:56:43.595Z,101371.66
2022-12-18T21:59:10.211Z,101361.78
2022-12-18T22:01:37.580Z,101365.28
2022-12-18T22:04:04.345Z,101357.09
2022-12-18T22:06:30.752Z,101358.31
2022-12-18T22:08:57.075Z,101360.19
2022-12-18T22:11:23.414Z,101358.53
2022-12-18T22:13:49.810Z,101361.97
2022-12-18T22:16:16.212Z,101359.53
2022-12-18T22:18:42.555Z,101363.69
2022-12-18T22:21:30.391Z,101359.03
2022-12-18T22:23:59.221Z,101354.25
2022-12-18T22:26:27.695Z,101356.03
2022-12-18T22:28:54.385Z,101361.19
2022-12-18T22:31:20.747Z,101358.16
2022-12-18T22:33:47.095Z,101352.09
2022-12-18T22:36:13.453Z,101353.72
2022-12-18T22:38:41.349Z,101357.00
2022-12-18T22:41:07.662Z,101354.56
2022-12-18T22:43:33.976Z,101342.66
2022-12-18T22:46:03.460Z,101342.03
2022-12-18T22:48:29.875Z,101331.22
2022-12-18T22:50:59.004Z,101327.53
2022-12-18T22:53:26.090Z,101318.97
2022-12-18T22:55:59.585Z,101316.50
2022-12-18T22:58:25.885Z,101314.44
2022-12-18T23:00:52.236Z,101319.63
2022-12-18T23:03:18.609Z,101320.81
2022-12-18T23:05:44.983Z,101332.84
2022-12-18T23:08:11.288Z,101326.38
2022-12-18T23:10:38.134Z,101324.69
2022-12-18T23:13:04.726Z,101322.59
2022-12-18T23:15:31.203Z,101323.09
2022-12-18T23:17:58.481Z,101317.31
2022-12-18T23:20:26.510Z,101316.06
2022-12-18T23:22:53.359Z,101314.84
2022-12-18T23:25:19.696Z,101315.72
2022-12-18T23:27:46.023Z,101319.38
2022-12-18T23:30:12.748Z,101315.09
2022-12-18T23:32:39.085Z,101307.50
2022-12-18T23:35:05.934Z,101306.88
2022-12-18T23:37:57.469Z,101305.41
2022-12-18T23:40:20.273Z,101307.09
2022-12-18T23:42:46.612Z,101308.31
2022-12-18T23:45:17.760Z,101294.00
2022-12-18T23:47:44.624Z,101299.72
2022-12-18T23:50:13.364Z,101297.06
2022-12-18T23:52:40.093Z,101291.94
2022-12-18T23:55:06.834Z,101286.41
2022-12-18T23:57:33.151Z,101282.31
2022-12-18T23:59:59.439Z,101278.22
